This is the latest recevied weather packets stored in our database for station/object K0WOI. If no packets are shown the sender has not sent any weather packets the latest 10 day(s).
| Time | Temp. | Humidity | Pressure | Rain* | Wind** | Luminosity | Snow |
|---|---|---|---|---|---|---|---|
| 1776992079 | 13.89° C | 99% | 999.5 hPa | 16.76 mm | - | 0 W/m² | - |
| 1776991775 | 13.89° C | 99% | 999.8 hPa | 19.81 mm | - | 0 W/m² | - |
| 1776991473 | 13.33° C | 99% | 1000.3 hPa | 11.94 mm | - | 0 W/m² | - |
| 1776991167 | 13.33° C | 99% | 1001.1 hPa | 10.67 mm | - | 0 W/m² | - |
| 1776990865 | 13.33° C | 99% | 999.5 hPa | 16.76 mm | - | 0 W/m² | - |
| 1776990562 | 13.89° C | 99% | 999.4 hPa | 37.85 mm | - | 0 W/m² | - |
| 1776990259 | 13.89° C | 98% | 999.5 hPa | 31.75 mm | - | 0 W/m² | - |
| 1776989959 | 13.89° C | 97% | 1000.3 hPa | 19.81 mm | - | 0 W/m² | - |
| 1776989655 | 13.89° C | 96% | 999.3 hPa | 34.8 mm | - | 0 W/m² | - |
| 1776989351 | 15° C | 93% | 1000.1 hPa | 21.08 mm | - | 0 W/m² | - |
| 1776989048 | 17.22° C | 87% | 1000.2 hPa | 3.05 mm | - | 0 W/m² | - |
| 1776988745 | 22.22° C | 79% | 998.9 hPa | 0 mm | - | 0 W/m² | - |
| 1776988441 | 22.22° C | 79% | 998 hPa | 0 mm | - | 0 W/m² | - |
| 1776988137 | 22.22° C | 80% | 998.1 hPa | 0 mm | - | 0 W/m² | - |
| 1776987834 | 22.22° C | 80% | 997.6 hPa | 0 mm | - | 0 W/m² | - |
| 1776987530 | 21.67° C | 80% | 997.6 hPa | 0 mm | - | 1 W/m² | - |
| 1776987228 | 21.67° C | 80% | 997.9 hPa | 0 mm | - | 2 W/m² | - |
| 1776986924 | 22.22° C | 80% | 997.9 hPa | 0 mm | - | 3 W/m² | - |
| 1776986619 | 22.22° C | 80% | 998 hPa | 0 mm | - | 4 W/m² | - |
| 1776986316 | 22.22° C | 79% | 998 hPa | 0 mm | - | 4 W/m² | - |
| 1776986013 | 22.22° C | 79% | 998 hPa | 0 mm | - | 8 W/m² | - |
| 1776985710 | 22.22° C | 79% | 998.3 hPa | 0 mm | - | 12 W/m² | - |
| 1776985406 | 22.22° C | 79% | 998.3 hPa | 0 mm | - | 18 W/m² | - |
| 1776985103 | 22.22° C | 78% | 998.4 hPa | 0 mm | - | 23 W/m² | - |
| 1776984802 | 22.22° C | 78% | 998.4 hPa | 0 mm | - | 23 W/m² | - |
* Rain latest hour (hover to see other rain measurements)
** Current wind speed in m/s (hover to see current wind gust speed)